Time;durP1;ratioP1;P1;durP2;ratioP2;P2;SDS_P1;SDS_P2;PMS_P1;PMS_P2;Temp;Humidity;BMP_temperature;BMP_pressure;BME280_temperature;BME280_humidity;BME280_pressure;Samples;Min_cycle;Max_cycle;Signal;HPM_P1;HPM_P2
2022/04/28 00:00:10;;;;;;;0.30;0.30;;;7.60;98.30;;;;;;5056118;28;20195;-66
2022/04/28 00:02:36;;;;;;;0.30;0.30;;;7.60;98.30;;;;;;5056368;28;20173;-66
2022/04/28 00:05:04;;;;;;;0.30;0.30;;;7.60;98.30;;;;;;5056485;28;20184;-67
2022/04/28 00:07:30;;;;;;;0.30;0.30;;;7.60;98.50;;;;;;5056266;28;20180;-67
2022/04/28 00:09:56;;;;;;;0.40;0.40;;;7.60;98.50;;;;;;5056048;28;20687;-67
2022/04/28 00:12:21;;;;;;;0.40;0.40;;;7.50;98.60;;;;;;5056151;28;20179;-67
2022/04/28 00:14:47;;;;;;;0.40;0.40;;;7.50;98.50;;;;;;5056720;28;20261;-66
2022/04/28 00:17:13;;;;;;;0.30;0.30;;;7.50;98.40;;;;;;5056298;28;20179;-67
2022/04/28 00:19:38;;;;;;;0.33;0.33;;;7.30;98.80;;;;;;5056077;28;20199;-67
2022/04/28 00:22:04;;;;;;;0.30;0.30;;;7.40;98.90;;;;;;5055726;28;20594;-67
2022/04/28 00:24:30;;;;;;;0.30;0.30;;;7.40;98.90;;;;;;5056116;28;20166;-67
2022/04/28 00:26:56;;;;;;;0.40;0.40;;;7.40;98.90;;;;;;5056365;28;20201;-67
2022/04/28 00:29:21;;;;;;;0.40;0.40;;;7.40;98.80;;;;;;5055734;28;20681;-70
2022/04/28 00:31:47;;;;;;;0.37;0.37;;;7.40;99.00;;;;;;5055790;28;20246;-67
2022/04/28 00:34:13;;;;;;;0.30;0.30;;;7.30;99.10;;;;;;5055782;28;20171;-67
2022/04/28 00:36:39;;;;;;;0.40;0.40;;;7.20;98.90;;;;;;5055726;28;20279;-66
2022/04/28 00:39:05;;;;;;;0.30;0.30;;;7.20;99.00;;;;;;5055792;28;20196;-67
2022/04/28 00:41:31;;;;;;;0.40;0.40;;;7.10;99.10;;;;;;5055403;28;20500;-66
2022/04/28 00:43:57;;;;;;;0.30;0.30;;;7.00;99.90;;;;;;5055614;28;20175;-66
2022/04/28 00:46:23;;;;;;;0.40;0.40;;;7.00;99.60;;;;;;5055644;28;20170;-67
2022/04/28 00:51:37;;;;;;;0.30;0.30;;;6.80;99.90;;;;;;5055542;28;20159;-67
2022/04/28 00:54:04;;;;;;;0.30;0.30;;;6.80;99.90;;;;;;5054116;28;20707;-66
2022/04/28 00:56:30;;;;;;;0.40;0.40;;;6.80;99.90;;;;;;5055341;28;20191;-66
2022/04/28 00:59:02;;;;;;;0.40;0.40;;;6.80;99.90;;;;;;5055411;28;20171;-67
2022/04/28 01:01:31;;;;;;;0.38;0.38;;;6.80;99.90;;;;;;5055302;28;20271;-66
2022/04/28 01:03:57;;;;;;;0.80;0.80;;;6.80;99.90;;;;;;5055404;28;20174;-67
2022/04/28 01:06:23;;;;;;;0.40;0.40;;;6.70;99.90;;;;;;5055628;28;20655;-67
2022/04/28 01:08:49;;;;;;;0.30;0.30;;;6.70;99.90;;;;;;5055133;28;20277;-66
2022/04/28 01:11:18;;;;;;;0.30;0.30;;;6.70;99.90;;;;;;5054932;28;20578;-66
2022/04/28 01:13:45;;;;;;;0.40;0.40;;;6.70;99.90;;;;;;5055055;28;20182;-66
2022/04/28 01:16:12;;;;;;;0.40;0.40;;;6.70;99.90;;;;;;5055251;28;20171;-67
2022/04/28 01:18:38;;;;;;;0.40;0.40;;;6.60;99.90;;;;;;5055159;28;20167;-67
2022/04/28 01:21:05;;;;;;;0.50;0.50;;;6.50;99.90;;;;;;5053211;28;20222;-68
2022/04/28 01:23:34;;;;;;;0.30;0.30;;;6.60;99.90;;;;;;5055151;28;20194;-67
2022/04/28 01:26:01;;;;;;;0.40;0.40;;;6.70;99.90;;;;;;5054884;28;20170;-67
2022/04/28 01:28:27;;;;;;;0.30;0.30;;;6.70;99.90;;;;;;5054905;28;20167;-68
2022/04/28 01:30:53;;;;;;;0.40;0.40;;;6.70;99.90;;;;;;5054441;28;20560;-67
2022/04/28 01:33:19;;;;;;;0.40;0.40;;;6.70;99.90;;;;;;5054587;28;20181;-67
2022/04/28 01:35:44;;;;;;;0.30;0.30;;;6.70;99.90;;;;;;5055025;28;20436;-67
2022/04/28 01:38:10;;;;;;;0.30;0.30;;;6.50;99.90;;;;;;5055015;28;20189;-66
2022/04/28 01:40:36;;;;;;;0.40;0.40;;;6.50;99.90;;;;;;5054234;28;20488;-66
2022/04/28 01:43:02;;;;;;;0.40;0.40;;;6.40;99.90;;;;;;5053929;28;20447;-67
2022/04/28 01:45:27;;;;;;;0.37;0.37;;;6.30;99.90;;;;;;5054629;28;20183;-68
2022/04/28 01:47:53;;;;;;;0.30;0.30;;;6.30;99.90;;;;;;5054528;28;20249;-67
2022/04/28 01:50:19;;;;;;;0.40;0.40;;;6.20;99.90;;;;;;5054121;28;20613;-65
2022/04/28 01:55:31;;;;;;;0.40;0.40;;;6.20;99.90;;;;;;5054400;28;20213;-66
2022/04/28 01:57:57;;;;;;;0.30;0.30;;;6.20;99.90;;;;;;5054338;28;20179;-67
2022/04/28 02:00:23;;;;;;;0.40;0.40;;;6.10;99.90;;;;;;5053760;28;20647;-68
2022/04/28 02:02:49;;;;;;;0.40;0.40;;;6.20;99.90;;;;;;5054631;28;20288;-69
2022/04/28 02:05:14;;;;;;;0.30;0.30;;;6.20;99.90;;;;;;5054113;28;20402;-67
2022/04/28 02:07:41;;;;;;;0.37;0.37;;;6.20;99.90;;;;;;5054111;28;20551;-67
2022/04/28 02:10:07;;;;;;;0.38;0.38;;;6.20;99.90;;;;;;5053746;28;20199;-67
2022/04/28 02:12:33;;;;;;;0.40;0.40;;;6.30;99.90;;;;;;5054147;28;20681;-67
2022/04/28 02:14:59;;;;;;;0.40;0.40;;;6.30;99.90;;;;;;5053999;28;20174;-66
2022/04/28 02:17:26;;;;;;;0.63;0.63;;;6.40;99.90;;;;;;5053837;28;20413;-67
2022/04/28 02:19:53;;;;;;;0.40;0.40;;;6.30;99.90;;;;;;5053530;28;20563;-67
2022/04/28 02:22:19;;;;;;;0.30;0.30;;;6.30;99.90;;;;;;5053879;28;20186;-66
2022/04/28 02:24:47;;;;;;;0.30;0.30;;;6.20;99.90;;;;;;5053875;28;20162;-67
2022/04/28 02:27:13;;;;;;;0.30;0.30;;;6.20;99.90;;;;;;5053824;28;20198;-67
2022/04/28 02:29:39;;;;;;;0.30;0.30;;;6.20;99.90;;;;;;5054118;28;20186;-67
2022/04/28 02:32:05;;;;;;;0.40;0.40;;;6.20;99.90;;;;;;5052171;28;20193;-67
2022/04/28 02:34:31;;;;;;;0.40;0.40;;;6.20;99.90;;;;;;5053967;28;20197;-66
2022/04/28 02:36:57;;;;;;;0.30;0.30;;;6.20;99.90;;;;;;5053522;28;20939;-67
2022/04/28 02:39:23;;;;;;;0.30;0.30;;;6.20;99.90;;;;;;5053488;28;20241;-67
2022/04/28 02:41:49;;;;;;;0.30;0.30;;;6.20;99.90;;;;;;5053533;28;20399;-66
2022/04/28 02:44:15;;;;;;;0.30;0.30;;;6.30;99.90;;;;;;5053334;28;20397;-66
2022/04/28 02:46:48;;;;;;;0.30;0.30;;;6.40;99.90;;;;;;5052030;28;20177;-67
2022/04/28 02:49:14;;;;;;;0.40;0.40;;;6.50;99.90;;;;;;5053358;28;20174;-67
2022/04/28 02:51:41;;;;;;;0.40;0.40;;;6.50;99.90;;;;;;5053331;28;20539;-67
2022/04/28 02:54:07;;;;;;;0.35;0.35;;;6.60;99.90;;;;;;5052579;28;20175;-66
2022/04/28 02:56:33;;;;;;;0.40;0.40;;;6.50;99.80;;;;;;5053939;28;20197;-67
2022/04/28 02:58:58;;;;;;;0.30;0.30;;;6.50;99.70;;;;;;5053486;28;20440;-67
2022/04/28 03:01:25;;;;;;;0.30;0.30;;;6.50;99.70;;;;;;5053061;28;20581;-67
2022/04/28 03:03:51;;;;;;;0.40;0.40;;;6.50;99.70;;;;;;5053257;28;20170;-66
2022/04/28 03:11:48;;;;;;;0.35;0.35;;;6.40;99.50;;;;;;5053081;28;20177;-67
2022/04/28 03:14:14;;;;;;;0.43;0.43;;;6.30;99.80;;;;;;5053374;28;20170;-66
2022/04/28 03:16:40;;;;;;;0.40;0.40;;;6.20;99.90;;;;;;5053239;28;20182;-67
2022/04/28 03:19:06;;;;;;;0.63;0.63;;;6.20;99.90;;;;;;5052956;28;20170;-66
2022/04/28 03:21:32;;;;;;;0.30;0.30;;;6.20;99.90;;;;;;5052705;28;20468;-67
2022/04/28 03:23:57;;;;;;;0.30;0.30;;;6.10;99.90;;;;;;5053074;28;20231;-67
2022/04/28 03:26:23;;;;;;;0.40;0.40;;;6.10;99.90;;;;;;5053256;28;20409;-67
2022/04/28 03:28:49;;;;;;;0.30;0.30;;;6.10;99.90;;;;;;5053274;28;20189;-66
2022/04/28 03:31:14;;;;;;;0.40;0.40;;;6.10;99.90;;;;;;5052954;28;20190;-67
2022/04/28 03:33:40;;;;;;;0.40;0.40;;;6.00;99.90;;;;;;5052898;28;20227;-67
2022/04/28 03:38:50;;;;;;;0.40;0.40;;;6.00;99.90;;;;;;5053172;28;20181;-66
2022/04/28 03:41:16;;;;;;;0.50;0.50;;;6.00;99.90;;;;;;5052632;28;20573;-67
2022/04/28 03:43:41;;;;;;;0.30;0.30;;;6.10;99.90;;;;;;5053075;28;20561;-67
2022/04/28 03:46:07;;;;;;;0.60;0.60;;;6.10;99.90;;;;;;5051713;28;20174;-66
2022/04/28 03:48:32;;;;;;;0.40;0.40;;;6.10;99.90;;;;;;5052911;28;20173;-66
2022/04/28 03:50:58;;;;;;;0.40;0.40;;;6.10;99.90;;;;;;5052585;28;20222;-66
2022/04/28 03:53:24;;;;;;;0.30;0.30;;;6.00;99.90;;;;;;5052778;28;20171;-66
2022/04/28 03:55:49;;;;;;;0.50;0.50;;;6.10;99.90;;;;;;5053023;28;20174;-66
2022/04/28 03:58:16;;;;;;;0.30;0.30;;;6.10;99.90;;;;;;5052861;28;20550;-67
2022/04/28 04:00:43;;;;;;;0.40;0.40;;;6.10;99.90;;;;;;5052512;28;20654;-66
2022/04/28 04:03:08;;;;;;;0.40;0.40;;;6.20;99.90;;;;;;5051581;28;20635;-68
2022/04/28 04:05:34;;;;;;;0.40;0.40;;;6.20;99.90;;;;;;5055335;28;20172;-66
2022/04/28 04:07:59;;;;;;;0.30;0.30;;;6.20;99.90;;;;;;5056383;28;20162;-67
2022/04/28 04:10:25;;;;;;;0.30;0.30;;;6.20;99.90;;;;;;5056012;28;20240;-66
2022/04/28 04:12:51;;;;;;;0.30;0.30;;;6.20;99.90;;;;;;5056388;28;20170;-67
2022/04/28 04:15:16;;;;;;;0.60;0.60;;;6.20;99.90;;;;;;5056347;28;20646;-67
2022/04/28 04:17:45;;;;;;;0.30;0.30;;;6.20;99.90;;;;;;5056359;28;20242;-66
2022/04/28 04:20:11;;;;;;;0.40;0.40;;;6.20;99.90;;;;;;5055952;28;20564;-66
2022/04/28 04:22:37;;;;;;;0.30;0.30;;;6.20;99.90;;;;;;5056050;28;20182;-66
2022/04/28 04:25:04;;;;;;;0.33;0.33;;;6.20;99.90;;;;;;5056252;28;20169;-66
2022/04/28 04:27:30;;;;;;;0.40;0.40;;;6.20;99.90;;;;;;5056115;28;20178;-69
2022/04/28 04:29:56;;;;;;;0.40;0.40;;;6.30;99.90;;;;;;5055815;28;20216;-66
2022/04/28 04:32:25;;;;;;;0.40;0.40;;;6.30;99.90;;;;;;5056062;28;20166;-66
2022/04/28 04:34:54;;;;;;;0.30;0.30;;;6.40;99.90;;;;;;5056270;28;20643;-65
2022/04/28 04:37:21;;;;;;;0.38;0.38;;;6.40;99.90;;;;;;5056180;28;20208;-67
2022/04/28 04:39:48;;;;;;;0.30;0.30;;;6.50;99.90;;;;;;5055664;28;20598;-66
2022/04/28 04:42:14;;;;;;;0.40;0.40;;;6.40;99.90;;;;;;5055801;28;20166;-68
2022/04/28 04:44:40;;;;;;;2.55;2.05;;;6.50;99.90;;;;;;5056089;28;20170;-66
2022/04/28 04:47:06;;;;;;;0.30;0.30;;;6.50;99.90;;;;;;5054740;28;20174;-67
2022/04/28 04:49:31;;;;;;;0.30;0.30;;;6.60;99.90;;;;;;5054187;28;20643;-67
2022/04/28 04:51:57;;;;;;;0.40;0.40;;;6.60;99.90;;;;;;5052782;28;20170;-67
2022/04/28 04:54:22;;;;;;;0.33;0.33;;;6.70;99.70;;;;;;5054780;28;20166;-66
2022/04/28 04:56:48;;;;;;;0.30;0.30;;;6.80;99.50;;;;;;5055269;28;20167;-66
2022/04/28 04:59:14;;;;;;;0.30;0.30;;;6.80;99.30;;;;;;5055510;28;20166;-66
2022/04/28 05:01:39;;;;;;;0.30;0.30;;;6.90;99.30;;;;;;5055088;28;20195;-66
2022/04/28 05:04:06;;;;;;;0.40;0.40;;;7.00;99.00;;;;;;5055637;28;20162;-66
2022/04/28 05:06:32;;;;;;;0.30;0.30;;;7.00;98.80;;;;;;5055356;28;20178;-67
2022/04/28 05:08:57;;;;;;;0.40;0.40;;;7.00;98.70;;;;;;5054040;28;20182;-68
2022/04/28 05:11:23;;;;;;;0.30;0.30;;;7.20;98.80;;;;;;5053708;28;20199;-66
2022/04/28 05:13:49;;;;;;;0.40;0.40;;;7.70;98.80;;;;;;5055282;28;20629;-65
2022/04/28 05:16:15;;;;;;;0.40;0.40;;;8.40;97.60;;;;;;5054338;28;20176;-68
2022/04/28 05:18:40;;;;;;;0.40;0.40;;;9.30;96.40;;;;;;5055305;28;20249;-66
2022/04/28 05:21:06;;;;;;;0.30;0.30;;;10.10;94.90;;;;;;5054552;28;21034;-67
2022/04/28 05:23:32;;;;;;;0.57;0.57;;;10.60;92.10;;;;;;5055184;28;20619;-66
2022/04/28 05:25:57;;;;;;;0.40;0.40;;;11.40;91.60;;;;;;5054948;28;20629;-66
2022/04/28 05:28:29;;;;;;;0.30;0.30;;;12.60;89.50;;;;;;5053436;28;20169;-67
2022/04/28 05:30:55;;;;;;;0.30;0.30;;;13.60;85.30;;;;;;5054399;28;20198;-67
2022/04/28 05:33:22;;;;;;;0.30;0.30;;;14.30;79.00;;;;;;5054742;28;20465;-68
2022/04/28 05:35:48;;;;;;;0.40;0.40;;;15.30;77.80;;;;;;5053428;28;20423;-67
2022/04/28 05:38:14;;;;;;;0.50;0.50;;;16.30;71.70;;;;;;5054746;28;20442;-67
2022/04/28 05:40:43;;;;;;;0.30;0.30;;;17.30;65.50;;;;;;5053095;28;20499;-67
2022/04/28 05:45:55;;;;;;;0.40;0.40;;;18.30;59.10;;;;;;5054528;28;20442;-67
2022/04/28 05:48:21;;;;;;;0.30;0.30;;;19.30;57.20;;;;;;5054530;28;20408;-67
2022/04/28 05:50:47;;;;;;;0.40;0.40;;;20.00;54.40;;;;;;5053709;28;20210;-67
2022/04/28 05:53:13;;;;;;;0.30;0.30;;;20.80;52.50;;;;;;5054555;28;20193;-68
2022/04/28 05:55:40;;;;;;;0.50;0.50;;;21.80;50.00;;;;;;5054490;28;20405;-68
2022/04/28 05:58:06;;;;;;;0.30;0.30;;;21.80;48.20;;;;;;5054238;28;20405;-68
2022/04/28 06:00:33;;;;;;;0.30;0.30;;;22.50;48.40;;;;;;5053967;28;20823;-68
2022/04/28 06:02:59;;;;;;;0.30;0.30;;;22.80;46.50;;;;;;5054330;28;20863;-68
2022/04/28 06:05:25;;;;;;;0.30;0.30;;;23.50;45.80;;;;;;5054296;28;20408;-67
2022/04/28 06:07:51;;;;;;;1.00;1.00;;;24.10;42.60;;;;;;5054387;28;20388;-68
2022/04/28 06:10:17;;;;;;;0.40;0.40;;;24.10;42.40;;;;;;5053881;28;20431;-68
2022/04/28 06:12:43;;;;;;;0.30;0.30;;;24.10;41.40;;;;;;5054099;28;20198;-68
2022/04/28 06:15:09;;;;;;;1.37;1.27;;;23.10;42.20;;;;;;5054286;28;20887;-68
2022/04/28 06:17:35;;;;;;;0.30;0.30;;;23.00;42.90;;;;;;5054254;28;20176;-67
2022/04/28 06:20:02;;;;;;;0.33;0.33;;;22.70;42.80;;;;;;5052678;28;20457;-68
2022/04/28 06:22:27;;;;;;;0.40;0.40;;;22.00;42.60;;;;;;5053979;28;20311;-67
2022/04/28 06:24:54;;;;;;;0.30;0.30;;;21.00;44.20;;;;;;5053948;28;20426;-67
2022/04/28 06:27:21;;;;;;;0.30;0.30;;;21.20;45.40;;;;;;5053916;28;20162;-68
2022/04/28 06:29:48;;;;;;;1.70;1.60;;;20.80;44.30;;;;;;5053577;28;20403;-68
2022/04/28 06:32:16;;;;;;;0.30;0.30;;;21.20;44.40;;;;;;5053847;28;20383;-67
2022/04/28 06:34:43;;;;;;;0.30;0.30;;;22.10;44.30;;;;;;5053924;28;20737;-68
2022/04/28 06:37:09;;;;;;;0.30;0.30;;;22.00;43.20;;;;;;5053771;28;20419;-68
2022/04/28 06:39:34;;;;;;;0.30;0.30;;;21.50;44.30;;;;;;5052355;28;20504;-68
2022/04/28 06:42:00;;;;;;;0.30;0.30;;;21.00;43.60;;;;;;5053406;28;20171;-67
2022/04/28 06:44:26;;;;;;;0.30;0.30;;;20.10;45.00;;;;;;5053584;28;20687;-67
2022/04/28 06:46:52;;;;;;;0.30;0.30;;;19.20;47.30;;;;;;5053450;28;20180;-67
2022/04/28 06:49:17;;;;;;;0.30;0.30;;;18.50;47.70;;;;;;5053617;28;20177;-67
2022/04/28 06:51:43;;;;;;;0.80;0.80;;;17.90;48.30;;;;;;5053421;28;20672;-67
2022/04/28 06:54:09;;;;;;;0.30;0.30;;;17.50;49.30;;;;;;5053577;28;20192;-67
2022/04/28 06:56:35;;;;;;;0.40;0.40;;;17.60;50.10;;;;;;5053440;28;20405;-67
2022/04/28 06:59:00;;;;;;;0.50;0.50;;;17.90;48.80;;;;;;5053666;28;20710;-68
2022/04/28 07:01:26;;;;;;;0.30;0.30;;;18.80;50.00;;;;;;5053036;28;20204;-68
2022/04/28 07:03:51;;;;;;;0.30;0.30;;;19.30;46.30;;;;;;5053522;28;20173;-68
2022/04/28 07:06:17;;;;;;;0.40;0.40;;;19.70;46.30;;;;;;5053557;28;20497;-67
2022/04/28 07:08:45;;;;;;;0.30;0.30;;;19.70;44.30;;;;;;5053493;28;20664;-68
2022/04/28 07:11:11;;;;;;;0.30;0.30;;;19.60;46.40;;;;;;5053102;28;20201;-67
2022/04/28 07:13:37;;;;;;;0.30;0.30;;;19.30;44.90;;;;;;5053358;28;20410;-68
2022/04/28 07:16:04;;;;;;;0.30;0.30;;;19.60;45.00;;;;;;5053362;28;20189;-67
2022/04/28 07:18:30;;;;;;;0.30;0.30;;;20.40;44.70;;;;;;5053165;28;20495;-68
2022/04/28 07:20:55;;;;;;;0.30;0.30;;;21.70;43.00;;;;;;5052875;28;20874;-68
2022/04/28 07:23:21;;;;;;;0.30;0.30;;;23.60;41.70;;;;;;5053416;28;20297;-68
2022/04/28 07:25:47;;;;;;;0.63;0.63;;;25.70;38.00;;;;;;5053184;28;20227;-68
2022/04/28 07:28:13;;;;;;;0.50;0.50;;;26.70;36.10;;;;;;5053356;28;20166;-67
2022/04/28 07:30:39;;;;;;;0.50;0.50;;;26.90;34.20;;;;;;5053006;28;20190;-67
2022/04/28 07:33:05;;;;;;;0.50;0.50;;;26.80;33.60;;;;;;5053212;28;20416;-68
2022/04/28 07:35:31;;;;;;;0.30;0.30;;;27.70;34.70;;;;;;5053731;28;20623;-69
2022/04/28 07:37:57;;;;;;;0.30;0.30;;;28.50;33.20;;;;;;5053021;28;20232;-68
2022/04/28 07:40:23;;;;;;;0.30;0.30;;;28.50;31.40;;;;;;5054769;28;20467;-69
2022/04/28 07:42:49;;;;;;;0.40;0.40;;;28.20;30.10;;;;;;5056995;28;20224;-69
2022/04/28 07:45:14;;;;;;;0.30;0.30;;;27.70;31.20;;;;;;5056959;28;20580;-68
2022/04/28 07:47:40;;;;;;;0.30;0.30;;;28.20;32.50;;;;;;5057005;28;20537;-68
2022/04/28 07:50:06;;;;;;;0.40;0.40;;;28.70;30.80;;;;;;5056621;28;20204;-68
2022/04/28 07:52:32;;;;;;;0.30;0.30;;;29.40;30.70;;;;;;5056896;28;20176;-68
2022/04/28 07:54:57;;;;;;;0.30;0.30;;;30.10;29.40;;;;;;5055433;28;20507;-68
2022/04/28 07:57:23;;;;;;;0.80;0.80;;;29.30;29.40;;;;;;5056630;28;20576;-68
2022/04/28 07:59:50;;;;;;;0.40;0.40;;;28.30;29.10;;;;;;5056407;28;20197;-68
2022/04/28 08:02:16;;;;;;;0.30;0.30;;;28.30;30.10;;;;;;5056806;28;20236;-68
2022/04/28 08:04:42;;;;;;;0.30;0.30;;;27.90;30.20;;;;;;5056763;28;20401;-68
2022/04/28 08:07:08;;;;;;;0.30;0.30;;;27.70;30.30;;;;;;5056587;28;20407;-68
2022/04/28 08:09:34;;;;;;;0.40;0.40;;;28.00;30.50;;;;;;5056553;28;20801;-68
2022/04/28 08:12:00;;;;;;;0.40;0.40;;;28.40;30.20;;;;;;5054993;28;20835;-68
2022/04/28 08:14:26;;;;;;;0.30;0.30;;;28.80;29.10;;;;;;5056433;28;20166;-67
2022/04/28 08:16:55;;;;;;;1.93;0.90;;;28.50;29.60;;;;;;5056423;28;20939;-68
2022/04/28 08:19:21;;;;;;;0.30;0.30;;;29.10;28.80;;;;;;5056405;28;20205;-68
2022/04/28 08:21:48;;;;;;;0.30;0.30;;;29.20;29.00;;;;;;5055830;28;20886;-68
2022/04/28 08:24:14;;;;;;;1.10;1.00;;;29.80;30.00;;;;;;5056138;28;20492;-68
2022/04/28 08:26:40;;;;;;;0.30;0.30;;;29.80;27.90;;;;;;5056175;28;20432;-68
2022/04/28 08:29:05;;;;;;;0.30;0.30;;;28.80;29.60;;;;;;5056202;28;20184;-67
2022/04/28 08:31:32;;;;;;;0.40;0.40;;;28.70;28.30;;;;;;5055963;28;20487;-68
2022/04/28 08:33:58;;;;;;;0.53;0.53;;;27.70;29.00;;;;;;5056117;28;20174;-68
2022/04/28 08:36:25;;;;;;;0.30;0.30;;;27.80;30.00;;;;;;5055923;28;20462;-67
2022/04/28 08:38:52;;;;;;;0.30;0.30;;;27.60;30.30;;;;;;5056126;28;20261;-68
2022/04/28 08:41:29;;;;;;;0.40;0.40;;;28.50;30.40;;;;;;5055618;28;20506;-68
2022/04/28 08:44:00;;;;;;;0.50;0.50;;;29.20;28.50;;;;;;5055966;28;20396;-67
2022/04/28 08:49:12;;;;;;;0.40;0.40;;;26.60;29.80;;;;;;5055698;28;20442;-68
2022/04/28 08:51:39;;;;;;;1.17;1.17;;;27.20;31.30;;;;;;5052854;28;20436;-68
2022/04/28 08:54:05;;;;;;;0.30;0.30;;;27.00;31.20;;;;;;5055931;28;20401;-67
2022/04/28 08:56:31;;;;;;;1.13;1.03;;;27.30;30.50;;;;;;5055698;28;20846;-68
2022/04/28 08:58:57;;;;;;;0.60;0.60;;;27.80;31.10;;;;;;5056141;28;20546;-69
2022/04/28 09:01:27;;;;;;;0.30;0.30;;;27.90;29.90;;;;;;5055101;28;20937;-68
2022/04/28 09:03:54;;;;;;;0.40;0.40;;;27.20;29.00;;;;;;5055615;28;20173;-67
2022/04/28 09:06:30;;;;;;;0.30;0.30;;;26.50;29.70;;;;;;5055456;28;20431;-68
2022/04/28 09:08:57;;;;;;;0.30;0.30;;;26.60;29.30;;;;;;5055529;28;20400;-68
2022/04/28 09:11:26;;;;;;;0.80;0.80;;;26.20;30.50;;;;;;5055058;28;20948;-68
2022/04/28 09:14:18;;;;;;;0.30;0.30;;;26.40;31.70;;;;;;5055414;28;20413;-68
2022/04/28 09:16:48;;;;;;;0.40;0.40;;;26.80;30.20;;;;;;5055246;28;20417;-68
2022/04/28 09:19:24;;;;;;;0.30;0.30;;;27.30;29.70;;;;;;5055163;28;20412;-67
2022/04/28 09:21:55;;;;;;;0.40;0.40;;;27.20;29.20;;;;;;5054738;28;20550;-68
2022/04/28 09:24:23;;;;;;;0.40;0.40;;;27.70;29.30;;;;;;5055048;28;20409;-68
2022/04/28 09:26:51;;;;;;;0.30;0.30;;;27.90;28.80;;;;;;5055198;28;20396;-68
2022/04/28 09:29:18;;;;;;;0.30;0.30;;;28.30;29.20;;;;;;5054807;28;20502;-68
2022/04/28 09:31:45;;;;;;;0.40;0.40;;;27.40;29.10;;;;;;5054812;28;20877;-68
2022/04/28 09:34:16;;;;;;;0.30;0.30;;;27.50;29.20;;;;;;5055041;28;20422;-68
2022/04/28 09:36:44;;;;;;;0.30;0.30;;;27.30;29.10;;;;;;5054959;28;20832;-68
2022/04/28 09:39:14;;;;;;;0.30;0.30;;;26.80;30.60;;;;;;5054673;28;20417;-68
2022/04/28 09:44:24;;;;;;;0.40;0.40;;;26.10;31.10;;;;;;5054872;28;20396;-68
2022/04/28 09:46:50;;;;;;;1.37;1.37;;;26.70;31.80;;;;;;5054549;28;20405;-68
2022/04/28 09:49:23;;;;;;;0.47;0.47;;;27.50;30.30;;;;;;5055046;28;20412;-67
2022/04/28 09:51:57;;;;;;;0.30;0.30;;;26.90;29.10;;;;;;5054314;28;20407;-67
2022/04/28 09:54:28;;;;;;;0.30;0.30;;;26.20;29.80;;;;;;5054479;28;20431;-68
2022/04/28 09:56:54;;;;;;;0.30;0.30;;;26.20;30.30;;;;;;5054629;28;20408;-68
2022/04/28 09:59:20;;;;;;;0.40;0.40;;;26.80;31.40;;;;;;5054489;28;20412;-67
2022/04/28 10:01:46;;;;;;;0.30;0.30;;;26.70;30.40;;;;;;5053900;28;20237;-68
2022/04/28 10:04:11;;;;;;;0.30;0.30;;;26.50;30.60;;;;;;5053882;28;20433;-68
2022/04/28 10:06:38;;;;;;;0.30;0.30;;;26.30;31.80;;;;;;5054231;28;20181;-68
2022/04/28 10:09:12;;;;;;;0.40;0.40;;;27.00;31.90;;;;;;5054041;28;20175;-68
2022/04/28 10:11:38;;;;;;;0.30;0.30;;;27.60;30.80;;;;;;5054136;28;20408;-68
2022/04/28 10:14:05;;;;;;;0.30;0.30;;;27.10;30.40;;;;;;5054680;28;20409;-68
2022/04/28 10:16:31;;;;;;;0.30;0.30;;;26.30;30.30;;;;;;5054203;28;20420;-67
2022/04/28 10:19:03;;;;;;;0.50;0.40;;;26.20;33.20;;;;;;5052749;28;20535;-67
2022/04/28 10:21:44;;;;;;;0.80;0.80;;;25.80;32.60;;;;;;5053546;28;20516;-68
2022/04/28 10:32:58;;;;;;;0.40;0.40;;;23.90;32.60;;;;;;5054294;28;20418;-67
2022/04/28 10:35:42;;;;;;;0.97;0.60;;;22.80;32.10;;;;;;5053914;28;20395;-67
2022/04/28 10:38:30;;;;;;;0.30;0.30;;;22.30;32.40;;;;;;5053744;28;20400;-67
2022/04/28 10:41:03;;;;;;;0.30;0.30;;;22.20;34.00;;;;;;5053392;28;20456;-67
2022/04/28 10:43:31;;;;;;;0.30;0.30;;;22.20;33.50;;;;;;5053769;28;20397;-67
2022/04/28 10:46:24;;;;;;;0.30;0.30;;;21.60;33.90;;;;;;5053528;28;20408;-67
2022/04/28 10:48:54;;;;;;;0.30;0.30;;;21.30;37.00;;;;;;5047646;28;20424;-67
2022/04/28 10:51:29;;;;;;;0.30;0.30;;;21.50;38.60;;;;;;5053210;28;20443;-67
2022/04/28 10:54:02;;;;;;;0.40;0.40;;;21.70;36.10;;;;;;5053379;28;20414;-68
2022/04/28 10:56:30;;;;;;;0.30;0.30;;;21.90;36.40;;;;;;5053588;28;20491;-67
2022/04/28 10:59:02;;;;;;;0.30;0.30;;;21.80;35.10;;;;;;5053369;28;20420;-67
2022/04/28 11:01:32;;;;;;;0.30;0.30;;;21.80;36.90;;;;;;5053316;28;20456;-67
2022/04/28 11:04:02;;;;;;;0.30;0.30;;;21.50;35.80;;;;;;5053436;28;20409;-67
2022/04/28 11:06:37;;;;;;;0.50;0.50;;;21.30;36.90;;;;;;5053753;28;20436;-68
2022/04/28 11:09:08;;;;;;;0.30;0.30;;;21.00;35.70;;;;;;5053256;28;20400;-68
2022/04/28 11:11:48;;;;;;;0.50;0.50;;;20.90;38.00;;;;;;5053054;28;20443;-67
2022/04/28 11:14:15;;;;;;;0.30;0.30;;;21.00;37.00;;;;;;5053478;28;20419;-67
2022/04/28 11:16:41;;;;;;;0.40;0.40;;;20.80;34.80;;;;;;5057493;28;20415;-68
2022/04/28 11:19:08;;;;;;;0.30;0.30;;;20.80;36.00;;;;;;5057071;28;20400;-68
2022/04/28 11:21:38;;;;;;;0.30;0.30;;;20.90;35.50;;;;;;5056892;28;20497;-67
2022/04/28 11:24:06;;;;;;;0.30;0.30;;;20.30;35.10;;;;;;5055899;28;20913;-68
2022/04/28 11:26:32;;;;;;;0.30;0.30;;;20.20;35.20;;;;;;5057258;28;20810;-68
2022/04/28 11:29:05;;;;;;;0.40;0.40;;;20.00;35.20;;;;;;5057191;28;20410;-67
2022/04/28 11:31:31;;;;;;;0.30;0.30;;;19.70;34.60;;;;;;5056923;28;20416;-67
2022/04/28 11:33:57;;;;;;;0.30;0.30;;;19.30;35.50;;;;;;5057015;28;20499;-68
2022/04/28 11:36:27;;;;;;;0.30;0.30;;;18.80;36.80;;;;;;5057053;28;20483;-67
2022/04/28 11:39:01;;;;;;;0.30;0.30;;;18.40;38.30;;;;;;5057027;28;20583;-67
2022/04/28 11:41:35;;;;;;;0.30;0.30;;;18.20;38.40;;;;;;5056630;28;20813;-66
2022/04/28 11:44:05;;;;;;;0.57;0.57;;;17.90;38.00;;;;;;5057064;28;20400;-66
2022/04/28 11:46:32;;;;;;;0.73;0.73;;;18.20;37.90;;;;;;5056941;28;20474;-67
2022/04/28 11:48:58;;;;;;;0.30;0.30;;;18.60;38.80;;;;;;5056785;28;20494;-68
2022/04/28 11:51:24;;;;;;;0.30;0.30;;;18.80;38.90;;;;;;5056580;28;20444;-67
2022/04/28 11:53:52;;;;;;;0.30;0.30;;;19.10;38.10;;;;;;5056644;28;20182;-67
2022/04/28 11:56:21;;;;;;;0.30;0.30;;;19.10;38.70;;;;;;5056725;28;20764;-67
2022/04/28 11:58:50;;;;;;;0.30;0.30;;;19.20;37.30;;;;;;5056565;28;20413;-67
2022/04/28 12:01:19;;;;;;;0.30;0.30;;;19.30;39.90;;;;;;5056327;28;20809;-67
2022/04/28 12:03:55;;;;;;;0.30;0.30;;;19.20;37.70;;;;;;5056671;28;20405;-68
2022/04/28 12:06:22;;;;;;;0.50;0.50;;;19.20;40.70;;;;;;5056581;28;20430;-67
2022/04/28 12:08:54;;;;;;;0.30;0.30;;;19.30;37.60;;;;;;5056540;28;20810;-67
2022/04/28 12:14:24;;;;;;;0.30;0.30;;;19.30;36.60;;;;;;5056542;28;20407;-68
2022/04/28 12:19:52;;;;;;;0.30;0.30;;;18.80;37.90;;;;;;5056270;28;20506;-67
2022/04/28 12:22:30;;;;;;;0.30;0.30;;;18.70;38.30;;;;;;5056120;28;20429;-67
2022/04/28 12:25:07;;;;;;;0.30;0.30;;;18.80;37.40;;;;;;5056057;28;20415;-67
2022/04/28 12:27:37;;;;;;;0.30;0.30;;;18.90;39.10;;;;;;5056033;28;20450;-67
2022/04/28 12:30:08;;;;;;;0.30;0.30;;;19.10;36.40;;;;;;5055726;28;20433;-67
2022/04/28 12:32:42;;;;;;;0.30;0.30;;;18.90;37.00;;;;;;5056052;28;20495;-67
2022/04/28 12:35:07;;;;;;;0.30;0.30;;;18.60;37.40;;;;;;5056302;28;20409;-67
2022/04/28 12:37:40;;;;;;;0.30;0.30;;;18.30;38.90;;;;;;5056057;28;20915;-68
2022/04/28 12:40:06;;;;;;;0.30;0.30;;;18.20;39.00;;;;;;5054434;28;20205;-67
2022/04/28 12:42:48;;;;;;;0.30;0.30;;;18.40;38.60;;;;;;5055729;28;20447;-68
2022/04/28 12:45:16;;;;;;;0.30;0.30;;;18.40;37.10;;;;;;5055820;28;20916;-67
2022/04/28 12:47:43;;;;;;;0.30;0.30;;;18.40;36.20;;;;;;5055917;28;20867;-66
2022/04/28 12:50:23;;;;;;;0.30;0.30;;;18.20;38.80;;;;;;5055444;28;20432;-67
2022/04/28 12:52:49;;;;;;;0.30;0.30;;;18.10;39.30;;;;;;5055986;28;20759;-67
2022/04/28 12:55:18;;;;;;;0.30;0.30;;;18.20;38.40;;;;;;5055628;28;20408;-68
2022/04/28 12:57:45;;;;;;;0.40;0.40;;;18.30;38.00;;;;;;5055508;28;20408;-66
2022/04/28 13:00:12;;;;;;;0.30;0.30;;;18.40;37.40;;;;;;5055247;28;20460;-67
2022/04/28 13:02:44;;;;;;;0.30;0.30;;;18.20;38.70;;;;;;5055665;28;20409;-67
2022/04/28 13:05:20;;;;;;;0.30;0.30;;;18.20;39.50;;;;;;5055596;28;20440;-67
2022/04/28 13:07:46;;;;;;;0.30;0.30;;;18.20;37.40;;;;;;5055361;28;20788;-67
2022/04/28 13:10:13;;;;;;;0.30;0.30;;;18.10;36.80;;;;;;5055198;28;20508;-66
2022/04/28 13:12:39;;;;;;;0.30;0.30;;;18.00;37.20;;;;;;5055376;28;20177;-67
2022/04/28 13:15:05;;;;;;;0.30;0.30;;;18.10;37.30;;;;;;5055133;28;20413;-67
2022/04/28 13:17:31;;;;;;;0.93;0.77;;;18.20;37.40;;;;;;5055289;28;20766;-67
2022/04/28 13:19:57;;;;;;;0.30;0.30;;;18.20;37.10;;;;;;5053483;28;20449;-67
2022/04/28 13:22:23;;;;;;;0.30;0.30;;;18.20;37.10;;;;;;5054992;28;20457;-67
2022/04/28 13:24:49;;;;;;;0.30;0.30;;;18.10;37.60;;;;;;5055078;28;20182;-68
2022/04/28 13:27:15;;;;;;;0.30;0.30;;;18.20;37.80;;;;;;5055126;28;20416;-67